Portada
METAR-TAF:

METAR-TAF

Aeroports :

Beauvais, França

latitud: 49-28N, longitud: 002-07E, altitud: 109 m

Observació

L'informe es va fer fa 26 minuts, a les 02:00 UTC
Vent calma
Temperatura 9°C
Humitat 93%
Pressió 1020 hPa
Visibilitat 10 km o més
sense núvols per sota de 1500 mi sense presència de cumulonimbus.

METAR: LFOB 160200Z AUTO 00000KT CAVOK 09/08 Q1020 NOSIG

Hora: 04:26 (02:26 UTC)

Pronòstic

L'informe es va fer fa 3 hores i 26 minuts, a les 23:00 UTC
Pronòstic vàlid del 16 a les 00 UTC al 16 a les 24 UTC
Vent 8 kt del Nord
Visibilitat 10 km o més
sense núvols per sota de 1500 mi sense presència de cumulonimbus.
Temporalment
l' 16 a les 07 UTC al 16 a les 10 UTC
Cel ennuvolat a una alçada de 1500 ft

TAF: LFOB 152300Z 1600/1624 01008KT CAVOK TEMPO 1607/1610 BKN015

Observacions i pronòstics meteorològics de més de 4000 aeroports (METAR i TAF).

Les estacions disponibles són els punts grocs i vermells al mapa.

Posi el ratolí al punt desitjat per veure el nom de l'estació.

Feu clic per veure les observacions i els pronòstics meteorològics.

Per canviar el mapa: feu clic els botons verds amb una creu de color negre per apropar; al botó verd amb un guió per allunyar la imatge; o en les fletxes verdes per a mapes adjacents.


METAR-TAF: